createdAt,value
2022-12-25T00:00:24.298Z,11
2022-12-25T00:02:07.665Z,11
2022-12-25T00:03:51.014Z,10
2022-12-25T00:05:34.401Z,11
2022-12-25T00:07:17.776Z,11
2022-12-25T00:12:27.027Z,10
2022-12-25T00:14:10.410Z,9
2022-12-25T00:15:53.823Z,9
2022-12-25T00:17:37.196Z,9
2022-12-25T00:19:20.611Z,9
2022-12-25T00:21:04.071Z,9
2022-12-25T00:22:47.404Z,10
2022-12-25T00:24:30.829Z,9
2022-12-25T00:26:14.515Z,10
2022-12-25T00:27:57.891Z,9
2022-12-25T00:29:41.341Z,10
2022-12-25T00:31:24.706Z,9
2022-12-25T00:33:08.093Z,9
2022-12-25T00:34:51.490Z,9
2022-12-25T00:36:34.865Z,9
2022-12-25T00:38:18.281Z,9
2022-12-25T00:41:44.743Z,9
2022-12-25T00:43:28.151Z,9
2022-12-25T00:45:11.531Z,9
2022-12-25T00:46:55.003Z,9
2022-12-25T00:48:38.467Z,9
2022-12-25T00:50:21.798Z,9
2022-12-25T00:52:05.215Z,9
2022-12-25T00:53:48.559Z,2
2022-12-25T00:55:32.302Z,2
2022-12-25T00:57:15.708Z,2
2022-12-25T00:58:59.131Z,2
2022-12-25T01:00:42.750Z,2
2022-12-25T01:02:25.869Z,2
2022-12-25T01:04:09.276Z,2
2022-12-25T01:05:52.593Z,2
2022-12-25T01:07:35.992Z,3
2022-12-25T01:11:02.487Z,2
2022-12-25T01:12:45.936Z,2
2022-12-25T01:14:29.250Z,2
2022-12-25T01:16:12.657Z,2
2022-12-25T01:17:56.055Z,2
2022-12-25T01:19:39.441Z,2
2022-12-25T01:21:22.859Z,2
2022-12-25T01:23:06.246Z,2
2022-12-25T01:24:49.947Z,1
2022-12-25T01:26:33.331Z,2
2022-12-25T01:28:16.729Z,2
2022-12-25T01:30:00.162Z,1
2022-12-25T01:31:43.560Z,2
2022-12-25T01:33:26.931Z,2
2022-12-25T01:35:10.315Z,2
2022-12-25T01:36:53.713Z,2
2022-12-25T01:40:20.190Z,2
2022-12-25T01:42:03.680Z,2
2022-12-25T01:43:46.972Z,2
2022-12-25T01:45:30.364Z,2
2022-12-25T01:47:13.767Z,1
2022-12-25T01:48:57.171Z,2
2022-12-25T01:50:40.563Z,1
2022-12-25T01:52:23.957Z,1
2022-12-25T01:55:50.445Z,2
2022-12-25T01:57:33.833Z,1
2022-12-25T01:59:17.224Z,1
2022-12-25T02:01:00.618Z,2
2022-12-25T02:02:44.039Z,2
2022-12-25T02:04:27.404Z,1
2022-12-25T02:06:10.859Z,2
2022-12-25T02:07:54.287Z,2
2022-12-25T02:11:20.666Z,2
2022-12-25T02:13:04.076Z,2
2022-12-25T02:14:47.470Z,2
2022-12-25T02:16:30.860Z,2
2022-12-25T02:18:14.269Z,1
2022-12-25T02:19:57.720Z,2
2022-12-25T02:21:41.064Z,2
2022-12-25T02:23:24.452Z,2
2022-12-25T02:26:50.958Z,2
2022-12-25T02:28:34.307Z,2
2022-12-25T02:30:17.722Z,2
2022-12-25T02:32:01.120Z,2
2022-12-25T02:33:44.510Z,1
2022-12-25T02:35:27.906Z,2
2022-12-25T02:37:11.371Z,1
2022-12-25T02:38:54.703Z,2
2022-12-25T02:42:21.174Z,1
2022-12-25T02:44:04.582Z,1
2022-12-25T02:45:47.974Z,2
2022-12-25T02:47:31.353Z,2
2022-12-25T02:49:14.754Z,2
2022-12-25T02:50:58.143Z,2
2022-12-25T02:52:41.544Z,1
2022-12-25T02:54:24.958Z,2
2022-12-25T02:57:51.433Z,2
2022-12-25T02:59:34.819Z,2
2022-12-25T03:01:18.207Z,2
2022-12-25T03:03:01.614Z,2
2022-12-25T03:04:45.008Z,2
2022-12-25T03:06:28.406Z,2
2022-12-25T03:08:12.034Z,2
2022-12-25T03:09:55.197Z,2
2022-12-25T03:13:21.682Z,2
2022-12-25T03:15:05.084Z,2
2022-12-25T03:16:48.459Z,2
2022-12-25T03:18:31.858Z,2
2022-12-25T03:20:15.233Z,1
2022-12-25T03:21:58.649Z,2
2022-12-25T03:23:42.041Z,2
2022-12-25T03:25:25.421Z,3
2022-12-25T03:28:51.910Z,2
2022-12-25T03:30:35.331Z,2
2022-12-25T03:32:18.764Z,1
2022-12-25T03:34:02.128Z,1
2022-12-25T03:35:45.485Z,2
2022-12-25T03:37:28.899Z,1
2022-12-25T03:39:12.297Z,2
2022-12-25T03:40:55.672Z,2
2022-12-25T03:44:22.154Z,1
2022-12-25T03:46:05.563Z,2
2022-12-25T03:47:48.946Z,1
2022-12-25T03:49:32.341Z,2
2022-12-25T03:51:15.741Z,2
2022-12-25T03:52:59.141Z,2
2022-12-25T03:54:42.550Z,1
2022-12-25T03:56:25.916Z,2
2022-12-25T04:01:35.172Z,1
2022-12-25T04:03:18.557Z,1
2022-12-25T04:05:01.992Z,1
2022-12-25T04:06:45.354Z,1
2022-12-25T04:08:28.759Z,2
2022-12-25T04:10:12.136Z,2
2022-12-25T04:13:38.942Z,2
2022-12-25T04:17:05.426Z,2
2022-12-25T04:18:48.819Z,2
2022-12-25T04:20:32.402Z,2
2022-12-25T04:22:15.619Z,1
2022-12-25T04:23:59.464Z,2
2022-12-25T04:25:42.402Z,2
2022-12-25T04:27:25.861Z,2
2022-12-25T04:29:09.184Z,2
2022-12-25T04:32:35.666Z,2
2022-12-25T04:34:19.058Z,1
2022-12-25T04:36:02.480Z,1
2022-12-25T04:37:45.850Z,2
2022-12-25T04:39:29.250Z,2
2022-12-25T04:41:12.644Z,1
2022-12-25T04:42:56.060Z,2
2022-12-25T04:44:39.664Z,2
2022-12-25T04:48:05.917Z,2
2022-12-25T04:49:49.298Z,2
2022-12-25T04:51:32.701Z,2
2022-12-25T04:53:16.091Z,1
2022-12-25T04:54:59.517Z,2
2022-12-25T04:56:42.881Z,2
2022-12-25T04:58:26.286Z,2
2022-12-25T05:00:09.711Z,1
2022-12-25T05:03:36.145Z,2
2022-12-25T05:05:19.554Z,2
2022-12-25T05:07:02.947Z,2
2022-12-25T05:08:46.333Z,2
2022-12-25T05:10:29.723Z,1
2022-12-25T05:12:13.120Z,1
2022-12-25T05:13:56.534Z,1
2022-12-25T05:15:39.922Z,2
2022-12-25T05:19:06.394Z,2
2022-12-25T05:20:49.794Z,2
2022-12-25T05:22:33.199Z,2
2022-12-25T05:24:16.591Z,2
2022-12-25T05:25:59.983Z,2
2022-12-25T05:27:43.422Z,2
2022-12-25T05:29:26.780Z,2
2022-12-25T05:31:10.182Z,2
2022-12-25T05:36:19.420Z,2
2022-12-25T05:38:02.813Z,2
2022-12-25T05:39:46.193Z,2
2022-12-25T05:41:29.584Z,2
2022-12-25T05:43:13.013Z,1
2022-12-25T05:44:56.384Z,1
2022-12-25T05:46:39.787Z,2
2022-12-25T05:48:23.187Z,2
2022-12-25T05:53:32.442Z,2
2022-12-25T05:55:15.813Z,1
2022-12-25T05:56:59.222Z,1
2022-12-25T05:58:42.612Z,2
2022-12-25T06:00:26.032Z,1
2022-12-25T06:02:09.407Z,1
2022-12-25T06:03:52.795Z,2
2022-12-25T06:05:36.197Z,1
2022-12-25T06:10:45.437Z,2
2022-12-25T06:12:28.830Z,1
2022-12-25T06:14:12.245Z,1
2022-12-25T06:15:55.613Z,2
2022-12-25T06:17:39.024Z,2
2022-12-25T06:19:22.422Z,1
2022-12-25T06:21:05.827Z,2
2022-12-25T06:22:49.207Z,1
2022-12-25T06:26:15.716Z,2
2022-12-25T06:27:59.075Z,1
2022-12-25T06:29:42.492Z,2
2022-12-25T06:31:25.887Z,2
2022-12-25T06:33:09.261Z,2
2022-12-25T06:34:52.720Z,1
2022-12-25T06:36:36.057Z,1
2022-12-25T06:38:19.465Z,2
2022-12-25T06:43:28.698Z,2
2022-12-25T06:45:12.228Z,1
2022-12-25T06:46:55.496Z,2
2022-12-25T06:48:38.897Z,2
2022-12-25T06:50:22.283Z,1
2022-12-25T06:52:05.691Z,2
2022-12-25T06:53:49.088Z,2
2022-12-25T06:55:32.460Z,2
2022-12-25T06:58:58.950Z,1
2022-12-25T07:00:42.346Z,1
2022-12-25T07:02:25.742Z,2
2022-12-25T07:05:52.533Z,2
2022-12-25T07:07:35.916Z,2
2022-12-25T07:09:19.362Z,2
2022-12-25T07:11:02.758Z,2
2022-12-25T07:12:46.115Z,2
2022-12-25T07:14:29.809Z,2
2022-12-25T07:16:13.211Z,1
2022-12-25T07:17:56.595Z,2
2022-12-25T07:19:40.085Z,2
2022-12-25T07:21:23.542Z,2
2022-12-25T07:23:06.797Z,2
2022-12-25T07:24:50.220Z,2
2022-12-25T07:26:33.580Z,2
2022-12-25T07:28:16.983Z,1
2022-12-25T07:31:43.460Z,2
2022-12-25T07:33:27.050Z,2
2022-12-25T07:35:10.300Z,2
2022-12-25T07:36:53.664Z,2
2022-12-25T07:38:37.048Z,2
2022-12-25T07:40:20.437Z,2
2022-12-25T07:42:03.836Z,2
2022-12-25T07:43:47.231Z,2
2022-12-25T07:47:13.699Z,2
2022-12-25T07:48:57.266Z,1
2022-12-25T07:50:40.493Z,2
2022-12-25T07:52:23.914Z,2
2022-12-25T07:54:07.326Z,2
2022-12-25T07:55:50.753Z,2
2022-12-25T07:57:34.147Z,1
2022-12-25T07:59:17.553Z,2
2022-12-25T08:02:43.953Z,1
2022-12-25T08:04:27.351Z,2
2022-12-25T08:06:10.805Z,2
2022-12-25T08:07:54.212Z,2
2022-12-25T08:09:37.536Z,2
2022-12-25T08:11:21.021Z,2
2022-12-25T08:13:04.316Z,1
2022-12-25T08:14:47.713Z,2
2022-12-25T08:18:14.311Z,1
2022-12-25T08:19:57.594Z,1
2022-12-25T08:21:41.071Z,2
2022-12-25T08:23:24.400Z,2
2022-12-25T08:25:07.896Z,2
2022-12-25T08:26:51.246Z,2
2022-12-25T08:28:34.573Z,2
2022-12-25T08:30:17.965Z,2
2022-12-25T08:32:01.823Z,2
2022-12-25T08:33:45.100Z,2
2022-12-25T08:35:28.489Z,2
2022-12-25T08:37:11.855Z,25
2022-12-25T08:38:55.309Z,35
2022-12-25T08:40:38.658Z,33
2022-12-25T08:42:22.047Z,38
2022-12-25T08:44:05.450Z,40
2022-12-25T08:47:31.930Z,49
2022-12-25T08:49:15.306Z,60
2022-12-25T08:50:58.829Z,61
2022-12-25T08:52:42.179Z,61
2022-12-25T08:54:25.596Z,60
2022-12-25T08:56:09.017Z,54
2022-12-25T08:57:52.308Z,64
2022-12-25T08:59:35.906Z,65
2022-12-25T09:04:45.048Z,66
2022-12-25T09:06:28.557Z,113
2022-12-25T09:08:11.738Z,72
2022-12-25T09:09:55.192Z,127
2022-12-25T09:11:38.589Z,128
2022-12-25T09:13:21.943Z,140
2022-12-25T09:15:05.319Z,461
2022-12-25T09:16:48.708Z,449
2022-12-25T09:21:58.105Z,777
2022-12-25T09:25:24.880Z,636
2022-12-25T09:27:08.214Z,577
2022-12-25T09:28:51.612Z,442
2022-12-25T09:30:34.946Z,369
2022-12-25T09:32:18.495Z,298
2022-12-25T09:34:01.861Z,301
2022-12-25T09:37:28.256Z,368
2022-12-25T09:39:11.673Z,240
2022-12-25T09:40:54.984Z,216
2022-12-25T09:42:38.454Z,193
2022-12-25T09:44:21.846Z,179
2022-12-25T09:46:05.227Z,177
2022-12-25T09:47:48.666Z,259
2022-12-25T09:49:31.967Z,246
2022-12-25T09:52:58.533Z,309
2022-12-25T09:54:41.825Z,321
2022-12-25T09:56:25.310Z,436
2022-12-25T09:58:08.638Z,393
2022-12-25T09:59:52.042Z,401
2022-12-25T10:01:35.419Z,413
2022-12-25T10:03:18.828Z,393
2022-12-25T10:05:02.254Z,310
2022-12-25T10:08:28.685Z,128
2022-12-25T10:10:12.077Z,163
2022-12-25T10:11:55.581Z,133
2022-12-25T10:13:38.877Z,132
2022-12-25T10:15:22.274Z,130
2022-12-25T10:17:05.678Z,129
2022-12-25T10:18:49.056Z,126
2022-12-25T10:20:32.445Z,126
2022-12-25T10:22:15.859Z,125
2022-12-25T10:23:59.548Z,121
2022-12-25T10:25:42.955Z,140
2022-12-25T10:27:26.429Z,166
2022-12-25T10:29:09.739Z,169
2022-12-25T10:30:53.245Z,181
2022-12-25T10:32:36.565Z,167
2022-12-25T10:34:19.952Z,175
2022-12-25T10:36:03.345Z,185
2022-12-25T10:41:12.654Z,187
2022-12-25T10:42:55.993Z,193
2022-12-25T10:44:39.416Z,202
2022-12-25T10:46:22.752Z,202
2022-12-25T10:48:06.202Z,206
2022-12-25T10:49:49.588Z,210
2022-12-25T10:51:33.044Z,209
2022-12-25T10:53:16.394Z,204
2022-12-25T10:56:42.810Z,194
2022-12-25T10:58:26.218Z,187
2022-12-25T11:00:09.610Z,184
2022-12-25T11:01:52.998Z,178
2022-12-25T11:03:36.399Z,170
2022-12-25T11:05:19.831Z,149
2022-12-25T11:07:03.179Z,110
2022-12-25T11:08:46.614Z,110
2022-12-25T11:13:55.840Z,101
2022-12-25T11:15:39.220Z,97
2022-12-25T11:17:22.697Z,96
2022-12-25T11:19:06.104Z,92
2022-12-25T11:20:49.480Z,92
2022-12-25T11:22:32.983Z,94
2022-12-25T11:24:16.322Z,95
2022-12-25T11:25:59.666Z,95
2022-12-25T11:31:08.905Z,117
2022-12-25T11:32:52.307Z,117
2022-12-25T11:34:35.756Z,122
2022-12-25T11:36:19.021Z,111
2022-12-25T11:38:02.464Z,112
2022-12-25T11:39:45.826Z,117
2022-12-25T11:41:29.282Z,118
2022-12-25T11:43:12.667Z,125
2022-12-25T11:48:22.083Z,121
2022-12-25T11:50:05.353Z,131
2022-12-25T11:51:48.816Z,131
2022-12-25T11:53:32.067Z,137
2022-12-25T11:55:15.466Z,142
2022-12-25T11:56:58.873Z,135
2022-12-25T11:58:42.307Z,134
2022-12-25T12:00:25.761Z,137
2022-12-25T12:03:52.250Z,132
2022-12-25T12:05:35.586Z,120
2022-12-25T12:07:19.014Z,117
2022-12-25T12:09:02.401Z,103
2022-12-25T12:10:45.761Z,92
2022-12-25T12:12:29.090Z,100
2022-12-25T12:14:12.479Z,110
2022-12-25T12:15:55.957Z,113
2022-12-25T12:21:05.169Z,109
2022-12-25T12:22:48.551Z,112
2022-12-25T12:24:31.895Z,95
2022-12-25T12:26:15.301Z,102
2022-12-25T12:27:58.711Z,100
2022-12-25T12:29:42.220Z,97
2022-12-25T12:31:25.554Z,96
2022-12-25T12:33:08.912Z,97
2022-12-25T12:36:35.358Z,90
2022-12-25T12:38:18.821Z,90
2022-12-25T12:40:02.147Z,79
2022-12-25T12:41:45.539Z,72
2022-12-25T12:43:28.936Z,48
2022-12-25T12:45:12.356Z,45
2022-12-25T12:46:55.787Z,50
2022-12-25T12:48:39.135Z,58
2022-12-25T12:52:05.617Z,67
2022-12-25T12:53:49.025Z,77
2022-12-25T12:55:32.428Z,77
2022-12-25T12:57:15.841Z,101
2022-12-25T12:58:59.267Z,97
2022-12-25T13:00:42.691Z,94
2022-12-25T13:02:26.034Z,88
2022-12-25T13:04:09.360Z,76
2022-12-25T13:09:18.605Z,51
2022-12-25T13:11:02.022Z,49
2022-12-25T13:12:45.399Z,48
2022-12-25T13:14:28.792Z,60
2022-12-25T13:16:12.228Z,58
2022-12-25T13:17:55.634Z,109
2022-12-25T13:19:39.003Z,134
2022-12-25T13:21:22.392Z,139
2022-12-25T13:24:48.863Z,118
2022-12-25T13:26:32.326Z,124
2022-12-25T13:28:15.709Z,113
2022-12-25T13:29:59.048Z,109
2022-12-25T13:31:42.457Z,110
2022-12-25T13:33:25.837Z,107
2022-12-25T13:35:09.238Z,108
2022-12-25T13:36:52.636Z,107
2022-12-25T13:40:19.094Z,101
2022-12-25T13:42:02.575Z,105
2022-12-25T13:43:45.881Z,106
2022-12-25T13:45:29.410Z,108
2022-12-25T13:47:12.684Z,105
2022-12-25T13:48:56.076Z,110
2022-12-25T13:50:39.576Z,112
2022-12-25T13:52:22.878Z,120
2022-12-25T13:57:32.106Z,121
2022-12-25T13:59:15.490Z,109
2022-12-25T14:00:59.114Z,115
2022-12-25T14:02:42.308Z,112
2022-12-25T14:04:25.740Z,108
2022-12-25T14:06:09.132Z,113
2022-12-25T14:07:52.500Z,122
2022-12-25T14:09:35.939Z,141
2022-12-25T14:11:19.652Z,156
2022-12-25T14:13:02.985Z,164
2022-12-25T14:14:46.386Z,159
2022-12-25T14:16:29.781Z,155
2022-12-25T14:18:13.175Z,157
2022-12-25T14:19:56.575Z,148
2022-12-25T14:21:39.978Z,145
2022-12-25T14:23:23.385Z,134
2022-12-25T14:26:49.940Z,106
2022-12-25T14:28:33.305Z,100
2022-12-25T14:30:16.626Z,97
2022-12-25T14:32:00.028Z,98
2022-12-25T14:33:43.429Z,95
2022-12-25T14:35:26.911Z,86
2022-12-25T14:37:10.316Z,86
2022-12-25T14:38:53.612Z,70
2022-12-25T14:42:20.089Z,54
2022-12-25T14:44:03.487Z,46
2022-12-25T14:45:46.928Z,49
2022-12-25T14:47:30.413Z,47
2022-12-25T14:49:13.683Z,45
2022-12-25T14:50:57.275Z,44
2022-12-25T14:52:40.451Z,45
2022-12-25T14:54:23.970Z,47
2022-12-25T14:59:33.094Z,47
2022-12-25T15:01:16.602Z,46
2022-12-25T15:02:59.941Z,45
2022-12-25T15:04:43.291Z,42
2022-12-25T15:06:26.767Z,37
2022-12-25T15:08:10.102Z,33
2022-12-25T15:09:53.471Z,30
2022-12-25T15:11:36.955Z,27
2022-12-25T15:15:03.357Z,24
2022-12-25T15:16:46.832Z,24
2022-12-25T15:18:30.158Z,21
2022-12-25T15:20:13.662Z,17
2022-12-25T15:21:57.077Z,16
2022-12-25T15:23:40.396Z,12
2022-12-25T15:25:23.722Z,10
2022-12-25T15:27:07.221Z,9
2022-12-25T15:32:16.391Z,6
2022-12-25T15:33:59.752Z,5
2022-12-25T15:35:43.164Z,5
2022-12-25T15:37:26.697Z,4
2022-12-25T15:39:09.990Z,4
2022-12-25T15:40:53.403Z,9
2022-12-25T15:42:36.820Z,8
2022-12-25T15:44:20.172Z,10
2022-12-25T15:47:46.620Z,9
2022-12-25T15:49:30.065Z,9
2022-12-25T15:51:13.571Z,8
2022-12-25T15:52:56.836Z,8
2022-12-25T15:54:40.283Z,9
2022-12-25T15:56:23.612Z,9
2022-12-25T15:58:07.000Z,8
2022-12-25T15:59:50.409Z,8
2022-12-25T16:03:16.880Z,9
2022-12-25T16:05:00.365Z,8
2022-12-25T16:06:43.643Z,9
2022-12-25T16:08:27.066Z,8
2022-12-25T16:10:10.532Z,8
2022-12-25T16:11:53.862Z,8
2022-12-25T16:13:37.260Z,9
2022-12-25T16:15:20.613Z,8
2022-12-25T16:20:29.852Z,8
2022-12-25T16:22:13.244Z,8
2022-12-25T16:23:56.732Z,8
2022-12-25T16:25:40.068Z,8
2022-12-25T16:27:23.466Z,8
2022-12-25T16:29:06.840Z,271
2022-12-25T16:30:50.239Z,279
2022-12-25T16:32:33.636Z,273
2022-12-25T16:34:17.340Z,276
2022-12-25T16:36:00.751Z,276
2022-12-25T16:37:44.133Z,266
2022-12-25T16:39:27.533Z,282
2022-12-25T16:41:10.916Z,283
2022-12-25T16:42:54.355Z,282
2022-12-25T16:44:37.721Z,286
2022-12-25T16:46:21.108Z,284
2022-12-25T16:48:04.615Z,287
2022-12-25T16:51:31.048Z,292
2022-12-25T16:53:14.422Z,293
2022-12-25T16:54:57.803Z,293
2022-12-25T16:56:41.176Z,296
2022-12-25T16:58:24.629Z,299
2022-12-25T17:00:07.968Z,286
2022-12-25T17:01:51.371Z,278
2022-12-25T17:03:34.746Z,280
2022-12-25T17:07:01.262Z,290
2022-12-25T17:08:44.625Z,294
2022-12-25T17:10:28.011Z,275
2022-12-25T17:12:11.449Z,285
2022-12-25T17:13:54.807Z,287
2022-12-25T17:15:38.205Z,287
2022-12-25T17:17:21.673Z,286
2022-12-25T17:19:05.055Z,299
2022-12-25T17:22:31.472Z,305
2022-12-25T17:24:14.887Z,331
2022-12-25T17:25:58.273Z,308
2022-12-25T17:27:41.656Z,300
2022-12-25T17:29:25.121Z,298
2022-12-25T17:31:08.492Z,300
2022-12-25T17:32:51.849Z,299
2022-12-25T17:34:35.251Z,290
2022-12-25T17:36:18.981Z,281
2022-12-25T17:38:02.357Z,291
2022-12-25T17:39:45.739Z,295
2022-12-25T17:41:29.160Z,290
2022-12-25T17:43:12.530Z,288
2022-12-25T17:44:55.927Z,287
2022-12-25T17:46:39.392Z,289
2022-12-25T17:48:22.779Z,286
2022-12-25T17:51:49.216Z,292
2022-12-25T17:53:32.581Z,281
2022-12-25T17:55:15.999Z,290
2022-12-25T17:56:59.437Z,286
2022-12-25T17:58:42.765Z,293
2022-12-25T18:00:26.223Z,304
2022-12-25T18:02:09.554Z,287
2022-12-25T18:03:52.962Z,286
2022-12-25T18:07:19.461Z,303
2022-12-25T18:09:02.864Z,300
2022-12-25T18:10:46.217Z,303
2022-12-25T18:12:29.619Z,307
2022-12-25T18:14:13.020Z,304
2022-12-25T18:15:56.408Z,311
2022-12-25T18:17:39.806Z,309
2022-12-25T18:19:23.198Z,306
2022-12-25T18:22:49.687Z,308
2022-12-25T18:24:33.158Z,305
2022-12-25T18:26:16.491Z,306
2022-12-25T18:27:59.922Z,307
2022-12-25T18:29:43.261Z,307
2022-12-25T18:31:26.695Z,313
2022-12-25T18:33:10.060Z,312
2022-12-25T18:34:53.450Z,314
2022-12-25T18:38:19.961Z,313
2022-12-25T18:40:03.312Z,310
2022-12-25T18:41:46.753Z,313
2022-12-25T18:43:30.124Z,313
2022-12-25T18:45:13.518Z,313
2022-12-25T18:46:56.951Z,314
2022-12-25T18:48:40.311Z,316
2022-12-25T18:50:23.714Z,317
2022-12-25T18:52:07.419Z,316
2022-12-25T18:53:50.837Z,316
2022-12-25T18:55:34.182Z,315
2022-12-25T18:57:17.601Z,318
2022-12-25T18:59:00.992Z,319
2022-12-25T19:00:44.384Z,319
2022-12-25T19:02:27.801Z,323
2022-12-25T19:04:11.186Z,318
2022-12-25T19:07:37.659Z,323
2022-12-25T19:09:21.133Z,320
2022-12-25T19:11:04.438Z,319
2022-12-25T19:12:47.862Z,319
2022-12-25T19:14:31.464Z,321
2022-12-25T19:16:14.740Z,327
2022-12-25T19:17:58.026Z,310
2022-12-25T19:19:41.425Z,308
2022-12-25T19:23:07.983Z,306
2022-12-25T19:24:51.308Z,305
2022-12-25T19:26:34.696Z,307
2022-12-25T19:28:18.084Z,308
2022-12-25T19:30:01.474Z,307
2022-12-25T19:31:44.916Z,308
2022-12-25T19:33:28.266Z,313
2022-12-25T19:35:11.709Z,311
2022-12-25T19:38:38.180Z,312
2022-12-25T19:40:21.530Z,309
2022-12-25T19:42:05.073Z,309
2022-12-25T19:43:48.336Z,308
2022-12-25T19:45:31.716Z,310
2022-12-25T19:47:15.155Z,313
2022-12-25T19:48:58.567Z,313
2022-12-25T19:50:41.905Z,299
2022-12-25T19:52:25.335Z,321
2022-12-25T19:54:09.154Z,316
2022-12-25T19:55:52.418Z,298
2022-12-25T19:57:35.815Z,318
2022-12-25T19:59:19.306Z,320
2022-12-25T20:01:02.597Z,315
2022-12-25T20:02:45.989Z,316
2022-12-25T20:04:29.444Z,316
2022-12-25T20:06:12.772Z,314
2022-12-25T20:11:22.015Z,318
2022-12-25T20:13:05.425Z,317
2022-12-25T20:14:48.845Z,320
2022-12-25T20:16:32.223Z,319
2022-12-25T20:18:15.652Z,319
2022-12-25T20:19:59.078Z,322
2022-12-25T20:21:42.394Z,320
2022-12-25T20:23:25.837Z,318
2022-12-25T20:26:52.340Z,318
2022-12-25T20:28:35.713Z,317
2022-12-25T20:30:19.078Z,318
2022-12-25T20:32:02.452Z,318
2022-12-25T20:33:45.934Z,319
2022-12-25T20:35:29.258Z,317
2022-12-25T20:37:12.656Z,321
2022-12-25T20:38:56.039Z,319
2022-12-25T20:42:22.642Z,10
2022-12-25T20:44:05.966Z,10
2022-12-25T20:45:49.404Z,10
2022-12-25T20:47:32.810Z,10
2022-12-25T20:49:16.185Z,11
2022-12-25T20:50:59.493Z,11
2022-12-25T20:52:42.889Z,10
2022-12-25T20:54:26.355Z,10
2022-12-25T20:57:52.830Z,10
2022-12-25T20:59:36.223Z,10
2022-12-25T21:01:19.594Z,10
2022-12-25T21:03:03.105Z,10
2022-12-25T21:04:46.340Z,9
2022-12-25T21:06:29.930Z,10
2022-12-25T21:08:13.144Z,9
2022-12-25T21:09:56.538Z,10
2022-12-25T21:15:05.805Z,9
2022-12-25T21:16:49.165Z,10
2022-12-25T21:18:32.593Z,10
2022-12-25T21:20:16.028Z,10
2022-12-25T21:21:59.416Z,10
2022-12-25T21:23:42.792Z,10
2022-12-25T21:25:26.150Z,9
2022-12-25T21:27:09.570Z,9
2022-12-25T21:32:18.795Z,10
2022-12-25T21:34:02.203Z,10
2022-12-25T21:35:45.585Z,11
2022-12-25T21:37:28.982Z,10
2022-12-25T21:39:12.387Z,10
2022-12-25T21:40:55.787Z,10
2022-12-25T21:42:39.168Z,10
2022-12-25T21:44:22.562Z,10
2022-12-25T21:49:31.809Z,10
2022-12-25T21:51:15.251Z,11
2022-12-25T21:52:58.600Z,9
2022-12-25T21:54:41.991Z,10
2022-12-25T21:56:25.411Z,10
2022-12-25T21:58:08.786Z,10
2022-12-25T21:59:52.228Z,11
2022-12-25T22:01:35.589Z,10
2022-12-25T22:06:44.816Z,10
2022-12-25T22:08:28.216Z,10
2022-12-25T22:10:11.686Z,9
2022-12-25T22:11:55.025Z,9
2022-12-25T22:13:56.654Z,9
2022-12-25T22:15:24.827Z,10
2022-12-25T22:17:05.201Z,10
2022-12-25T22:18:48.594Z,10
2022-12-25T22:22:15.074Z,10
2022-12-25T22:23:58.467Z,10
2022-12-25T22:25:41.978Z,10
2022-12-25T22:27:25.266Z,10
2022-12-25T22:29:08.657Z,10
2022-12-25T22:30:52.052Z,10
2022-12-25T22:32:35.455Z,11
2022-12-25T22:34:18.837Z,10
2022-12-25T22:37:45.394Z,10
2022-12-25T22:39:28.706Z,9
2022-12-25T22:41:12.106Z,9
2022-12-25T22:42:55.513Z,10
2022-12-25T22:44:38.916Z,10
2022-12-25T22:46:22.287Z,9
2022-12-25T22:48:05.699Z,10
2022-12-25T22:49:49.109Z,10
2022-12-25T22:53:15.550Z,8
2022-12-25T22:54:58.973Z,7
2022-12-25T22:56:42.357Z,1
2022-12-25T22:58:25.756Z,1
2022-12-25T23:00:09.156Z,2
2022-12-25T23:01:52.552Z,1
2022-12-25T23:03:35.951Z,1
2022-12-25T23:05:19.336Z,1
2022-12-25T23:08:45.808Z,1
2022-12-25T23:10:29.203Z,1
2022-12-25T23:12:12.610Z,2
2022-12-25T23:13:56.000Z,1
2022-12-25T23:15:39.392Z,1
2022-12-25T23:17:22.790Z,1
2022-12-25T23:19:06.180Z,1
2022-12-25T23:20:49.574Z,0
2022-12-25T23:22:32.976Z,1
2022-12-25T23:25:59.462Z,1
2022-12-25T23:27:42.864Z,1
2022-12-25T23:29:26.235Z,0
2022-12-25T23:31:09.667Z,1
2022-12-25T23:32:53.050Z,1
2022-12-25T23:34:36.460Z,1
2022-12-25T23:36:19.923Z,1
2022-12-25T23:38:03.235Z,1
2022-12-25T23:39:46.604Z,1
2022-12-25T23:43:13.086Z,1
2022-12-25T23:44:56.486Z,1
2022-12-25T23:46:39.894Z,0
2022-12-25T23:48:23.282Z,1
2022-12-25T23:50:06.688Z,1
2022-12-25T23:51:50.092Z,1
2022-12-25T23:53:33.456Z,1
2022-12-25T23:55:16.948Z,1
